createdAt,value
2018-10-07T00:01:05.700Z,96381.33
2018-10-07T00:03:33.046Z,96382.33
2018-10-07T00:06:00.390Z,96377.91
2018-10-07T00:08:27.820Z,96375.05
2018-10-07T00:10:55.159Z,96384.02
2018-10-07T00:13:22.515Z,96378.10
2018-10-07T00:15:49.825Z,96375.86
2018-10-07T00:18:17.189Z,96377.18
2018-10-07T00:20:44.530Z,96370.02
2018-10-07T00:23:11.911Z,96375.42
2018-10-07T00:25:39.261Z,96374.45
2018-10-07T00:28:06.622Z,96374.33
2018-10-07T00:30:34.185Z,96373.45
2018-10-07T00:33:01.462Z,96372.72
2018-10-07T00:35:28.838Z,96374.67
2018-10-07T00:37:56.198Z,96370.93
2018-10-07T00:40:23.570Z,96376.30
2018-10-07T00:42:50.916Z,96371.84
2018-10-07T00:45:18.264Z,96380.77
2018-10-07T00:47:45.635Z,96379.77
2018-10-07T00:50:13.081Z,96378.78
2018-10-07T00:52:40.470Z,96376.14
2018-10-07T00:55:07.773Z,96376.27
2018-10-07T00:57:35.083Z,96376.54
2018-10-07T01:00:02.397Z,96369.47
2018-10-07T01:02:29.734Z,96371.47
2018-10-07T01:04:57.021Z,96369.38
2018-10-07T01:07:24.457Z,96372.52
2018-10-07T01:09:51.781Z,96374.53
2018-10-07T01:12:19.081Z,96378.02
2018-10-07T01:14:46.440Z,96373.38
2018-10-07T01:17:13.816Z,96381.37
2018-10-07T01:19:41.213Z,96371.14
2018-10-07T01:22:08.585Z,96365.69
2018-10-07T01:24:35.853Z,96370.48
2018-10-07T01:27:03.249Z,96370.95
2018-10-07T01:29:30.629Z,96379.56
2018-10-07T01:31:57.950Z,96374.64
2018-10-07T01:34:25.318Z,96371.91
2018-10-07T01:36:52.681Z,96361.09
2018-10-07T01:39:20.030Z,96365.98
2018-10-07T01:41:47.286Z,96355.98
2018-10-07T01:44:14.614Z,96364.12
2018-10-07T01:46:42.027Z,96358.67
2018-10-07T01:49:09.339Z,96358.67
2018-10-07T01:51:36.708Z,96362.66
2018-10-07T01:54:04.053Z,96364.95
2018-10-07T01:56:31.459Z,96366.68
2018-10-07T01:58:58.756Z,96370.19
2018-10-07T02:01:26.090Z,96364.17
2018-10-07T02:03:53.400Z,96364.59
2018-10-07T02:06:20.709Z,96367.17
2018-10-07T02:08:48.038Z,96371.42
2018-10-07T02:11:15.313Z,96379.28
2018-10-07T02:13:42.586Z,96380.68
2018-10-07T02:16:09.834Z,96381.91
2018-10-07T02:18:37.188Z,96375.86
2018-10-07T02:21:04.525Z,96378.92
2018-10-07T02:23:31.849Z,96378.70
2018-10-07T02:25:59.190Z,96388.00
2018-10-07T02:28:26.487Z,96386.39
2018-10-07T02:30:53.821Z,96312.30
2018-10-07T02:33:21.189Z,96385.86
2018-10-07T02:35:48.558Z,96375.77
2018-10-07T02:38:15.944Z,96378.81
2018-10-07T02:40:43.326Z,96376.33
2018-10-07T02:43:11.190Z,96388.14
2018-10-07T02:45:38.927Z,96390.48
2018-10-07T02:48:06.246Z,96393.69
2018-10-07T02:50:33.580Z,96394.58
2018-10-07T02:53:01.166Z,96392.00
2018-10-07T02:55:32.146Z,96386.55
2018-10-07T02:58:00.409Z,96388.78
2018-10-07T03:00:27.789Z,96386.92
2018-10-07T03:02:55.145Z,96387.81
2018-10-07T03:05:22.517Z,96393.09
2018-10-07T03:07:49.808Z,96387.45
2018-10-07T03:10:17.162Z,96388.14
2018-10-07T03:12:44.503Z,96389.50
2018-10-07T03:15:12.193Z,96396.41
2018-10-07T03:17:39.510Z,96401.59
2018-10-07T03:20:07.289Z,96410.01
2018-10-07T03:22:34.639Z,96404.95
2018-10-07T03:25:02.002Z,96403.66
2018-10-07T03:27:29.353Z,96399.10
2018-10-07T03:29:56.716Z,96398.33
2018-10-07T03:32:24.119Z,96399.66
2018-10-07T03:34:51.477Z,96405.61
2018-10-07T03:37:18.842Z,96414.33
2018-10-07T03:39:46.232Z,96414.27
2018-10-07T03:42:15.239Z,96412.86
2018-10-07T03:44:42.550Z,96419.08
2018-10-07T03:47:10.003Z,96410.07
2018-10-07T03:49:37.603Z,96410.25
2018-10-07T03:52:04.992Z,96417.53
2018-10-07T03:54:32.421Z,96405.95
2018-10-07T03:57:00.490Z,96419.14
2018-10-07T03:59:27.837Z,96424.19
2018-10-07T04:01:56.163Z,96436.75
2018-10-07T04:04:23.439Z,96440.39
2018-10-07T04:06:50.830Z,96441.64
2018-10-07T04:09:18.145Z,96442.88
2018-10-07T04:11:45.504Z,96445.83
2018-10-07T04:14:13.408Z,96445.81
2018-10-07T04:16:40.841Z,96445.53
2018-10-07T04:19:09.202Z,96452.05
2018-10-07T04:21:36.531Z,96445.20
2018-10-07T04:24:04.260Z,96454.42
2018-10-07T04:26:31.995Z,96447.45
2018-10-07T04:28:59.625Z,96444.25
2018-10-07T04:31:27.039Z,96448.92
2018-10-07T04:33:54.433Z,96450.63
2018-10-07T04:36:21.839Z,96452.84
2018-10-07T04:38:49.220Z,96458.03
2018-10-07T04:41:16.640Z,96456.98
2018-10-07T04:43:43.954Z,96449.25
2018-10-07T04:46:11.426Z,96447.38
2018-10-07T04:48:38.659Z,96450.70
2018-10-07T04:51:06.199Z,96461.29
2018-10-07T04:53:33.509Z,96454.94
2018-10-07T04:56:00.865Z,96453.86
2018-10-07T04:58:28.197Z,96455.69
2018-10-07T05:00:55.606Z,96451.68
2018-10-07T05:03:22.929Z,96460.48
2018-10-07T05:05:50.411Z,96459.30
2018-10-07T05:08:17.835Z,96457.52
2018-10-07T05:11:03.758Z,96461.88
2018-10-07T05:13:44.251Z,96458.66
2018-10-07T05:16:14.365Z,96466.28
2018-10-07T05:18:42.573Z,96472.08
2018-10-07T05:21:10.006Z,96478.68
2018-10-07T05:23:37.315Z,96478.62
2018-10-07T05:26:04.646Z,96486.75
2018-10-07T05:28:31.962Z,96482.19
2018-10-07T05:30:59.257Z,96496.51
2018-10-07T05:33:26.582Z,96494.48
2018-10-07T05:35:53.913Z,96485.89
2018-10-07T05:38:21.199Z,96496.44
2018-10-07T05:40:48.551Z,96500.55
2018-10-07T05:43:16.109Z,96508.78
2018-10-07T05:45:43.473Z,96505.65
2018-10-07T05:48:10.805Z,96509.84
2018-10-07T05:50:38.121Z,96514.96
2018-10-07T05:53:05.557Z,96515.91
2018-10-07T05:55:32.938Z,96516.44
2018-10-07T05:58:03.782Z,96518.78
2018-10-07T06:00:32.331Z,96511.27
2018-10-07T06:03:03.426Z,96513.10
2018-10-07T06:05:30.914Z,96516.84
2018-10-07T06:07:58.195Z,96523.67
2018-10-07T06:10:25.527Z,96527.22
2018-10-07T06:12:52.898Z,96533.52
2018-10-07T06:15:33.318Z,96533.44
2018-10-07T06:18:00.606Z,96532.44
2018-10-07T06:20:28.689Z,96535.14
2018-10-07T06:22:56.584Z,96540.64
2018-10-07T06:25:24.074Z,96547.48
2018-10-07T06:27:51.540Z,96543.84
2018-10-07T06:30:18.905Z,96550.35
2018-10-07T06:32:46.221Z,96557.23
2018-10-07T06:35:13.582Z,96552.89
2018-10-07T06:37:40.867Z,96560.73
2018-10-07T06:40:08.229Z,96559.25
2018-10-07T06:42:35.612Z,96559.72
2018-10-07T06:45:02.941Z,96569.87
2018-10-07T06:47:30.287Z,96583.06
2018-10-07T06:49:57.627Z,96580.97
2018-10-07T06:52:24.961Z,96570.41
2018-10-07T06:54:52.320Z,96588.26
2018-10-07T06:57:19.760Z,96584.88
2018-10-07T06:59:47.064Z,96589.75
2018-10-07T07:02:14.621Z,96596.27
2018-10-07T07:04:41.969Z,96591.01
2018-10-07T07:07:09.269Z,96594.02
2018-10-07T07:09:36.608Z,96604.72
2018-10-07T07:12:03.923Z,96607.68
2018-10-07T07:14:31.357Z,96609.83
2018-10-07T07:16:58.651Z,96615.33
2018-10-07T07:19:26.014Z,96610.10
2018-10-07T07:21:53.334Z,96608.01
2018-10-07T07:24:20.653Z,96606.18
2018-10-07T07:26:48.060Z,96616.06
2018-10-07T07:29:15.462Z,96613.58
2018-10-07T07:31:42.817Z,96613.91
2018-10-07T07:34:10.090Z,96615.53
2018-10-07T07:36:37.414Z,96606.41
2018-10-07T07:39:05.630Z,96612.43
2018-10-07T07:41:32.893Z,96613.84
2018-10-07T07:44:00.170Z,96613.61
2018-10-07T07:46:27.480Z,96619.05
2018-10-07T07:48:54.811Z,96625.16
2018-10-07T07:51:22.228Z,96627.27
2018-10-07T07:53:49.625Z,96622.84
2018-10-07T07:56:17.426Z,96639.08
2018-10-07T07:58:44.763Z,96646.61
2018-10-07T08:01:12.099Z,96641.52
2018-10-07T08:03:39.386Z,96648.58
2018-10-07T08:06:06.743Z,96655.87
2018-10-07T08:08:34.137Z,96661.63
2018-10-07T08:11:01.552Z,96654.20
2018-10-07T08:13:28.899Z,96659.60
2018-10-07T08:15:56.158Z,96667.79
2018-10-07T08:18:23.513Z,96678.06
2018-10-07T08:20:50.841Z,96674.63
2018-10-07T08:23:19.923Z,96673.69
2018-10-07T08:25:47.249Z,96678.23
2018-10-07T08:28:14.607Z,96679.92
2018-10-07T08:30:41.961Z,96672.20
2018-10-07T08:33:09.313Z,96667.13
2018-10-07T08:35:36.662Z,96673.52
2018-10-07T08:38:03.990Z,96665.45
2018-10-07T08:40:31.322Z,96675.96
2018-10-07T08:42:58.742Z,96678.92
2018-10-07T08:45:26.106Z,96687.97
2018-10-07T08:47:53.514Z,96686.61
2018-10-07T08:50:20.907Z,96695.87
2018-10-07T08:52:48.341Z,96694.22
2018-10-07T08:55:15.658Z,96687.72
2018-10-07T08:57:42.995Z,96687.83
2018-10-07T09:00:10.737Z,96689.55
2018-10-07T09:02:38.179Z,96686.48
2018-10-07T09:05:06.381Z,96684.06
2018-10-07T09:07:33.692Z,96691.92
2018-10-07T09:10:01.022Z,96691.13
2018-10-07T09:12:28.379Z,96695.53
2018-10-07T09:14:56.275Z,96692.66
2018-10-07T09:17:25.233Z,96699.33
2018-10-07T09:19:52.639Z,96705.26
2018-10-07T09:22:20.030Z,96699.62
2018-10-07T09:24:47.370Z,96703.23
2018-10-07T09:27:14.721Z,96704.11
2018-10-07T09:29:42.135Z,96708.62
2018-10-07T09:32:09.505Z,96710.55
2018-10-07T09:34:36.910Z,96706.48
2018-10-07T09:37:04.765Z,96702.80
2018-10-07T09:39:32.199Z,96704.64
2018-10-07T09:41:59.470Z,96707.20
2018-10-07T09:44:26.798Z,96706.90
2018-10-07T09:46:54.499Z,96710.61
2018-10-07T09:49:21.962Z,96711.26
2018-10-07T09:51:49.289Z,96720.98
2018-10-07T09:54:16.644Z,96716.51
2018-10-07T09:56:44.029Z,96720.39
2018-10-07T09:59:11.540Z,96723.35
2018-10-07T10:01:39.029Z,96725.55
2018-10-07T10:04:06.676Z,96712.47
2018-10-07T10:06:34.070Z,96721.56
2018-10-07T10:09:01.413Z,96717.28
2018-10-07T10:11:30.522Z,96717.41
2018-10-07T10:13:57.865Z,96721.41
2018-10-07T10:16:49.722Z,96719.16
2018-10-07T10:19:21.160Z,96722.22
2018-10-07T10:21:51.701Z,96724.27
2018-10-07T10:26:39.344Z,96727.08
2018-10-07T10:29:17.966Z,96719.31
2018-10-07T10:31:52.498Z,96721.42
2018-10-07T10:35:01.913Z,96726.09
2018-10-07T10:40:00.176Z,96720.84
2018-10-07T10:42:48.754Z,96731.97
2018-10-07T10:45:24.765Z,96728.38
2018-10-07T10:47:55.375Z,96721.41
2018-10-07T10:50:31.980Z,96722.42
2018-10-07T10:53:07.632Z,96719.95
2018-10-07T10:56:18.660Z,96722.95
2018-10-07T10:59:06.434Z,96727.62
2018-10-07T11:03:16.341Z,96732.39
2018-10-07T11:05:53.923Z,96731.37
2018-10-07T11:08:35.122Z,96721.41
2018-10-07T11:11:07.539Z,96719.69
2018-10-07T11:13:38.137Z,96723.15
2018-10-07T11:16:26.271Z,96719.16
2018-10-07T11:18:57.872Z,96716.14
2018-10-07T11:23:40.402Z,96720.88
2018-10-07T11:27:19.673Z,96721.59
2018-10-07T11:32:02.558Z,96721.45
2018-10-07T11:34:52.834Z,96721.47
2018-10-07T11:38:08.659Z,96719.61
2018-10-07T11:40:43.733Z,96727.43
2018-10-07T11:43:35.094Z,96727.24
2018-10-07T11:46:15.246Z,96720.06
2018-10-07T11:48:49.037Z,96724.34
2018-10-07T11:53:27.863Z,96718.45
2018-10-07T11:55:55.274Z,96723.45
2018-10-07T11:58:22.666Z,96720.23
2018-10-07T12:00:49.964Z,96717.09
2018-10-07T12:03:17.470Z,96721.42
2018-10-07T12:05:44.832Z,96720.48
2018-10-07T12:08:12.254Z,96725.58
2018-10-07T12:10:40.221Z,96728.17
2018-10-07T12:13:07.757Z,96726.53
2018-10-07T12:15:35.178Z,96723.77
2018-10-07T12:18:03.751Z,96726.89
2018-10-07T12:20:31.251Z,96722.61
2018-10-07T12:22:58.743Z,96724.48
2018-10-07T12:25:26.243Z,96727.27
2018-10-07T12:27:53.667Z,96727.34
2018-10-07T12:30:21.192Z,96733.17
2018-10-07T12:32:48.785Z,96724.03
2018-10-07T12:35:16.256Z,96726.73
2018-10-07T12:37:43.760Z,96730.35
2018-10-07T12:40:11.290Z,96737.89
2018-10-07T12:42:38.798Z,96741.17
2018-10-07T12:45:06.350Z,96741.14
2018-10-07T12:47:33.884Z,96743.05
2018-10-07T12:50:01.666Z,96745.04
2018-10-07T12:52:29.194Z,96749.52
2018-10-07T12:54:56.980Z,96748.15
2018-10-07T12:57:24.494Z,96747.43
2018-10-07T12:59:51.938Z,96755.28
2018-10-07T13:02:21.264Z,96748.15
2018-10-07T13:04:49.136Z,96756.22
2018-10-07T13:07:16.745Z,96759.25
2018-10-07T13:09:44.330Z,96766.52
2018-10-07T13:12:11.953Z,96766.54
2018-10-07T13:14:39.444Z,96773.03
2018-10-07T13:17:07.554Z,96774.31
2018-10-07T13:19:35.159Z,96782.97
2018-10-07T13:22:02.826Z,96780.14
2018-10-07T13:24:30.438Z,96778.70
2018-10-07T13:26:58.157Z,96786.02
2018-10-07T13:29:25.928Z,96781.97
2018-10-07T13:31:53.618Z,96790.91
2018-10-07T13:34:21.099Z,96786.98
2018-10-07T13:36:48.640Z,96785.13
2018-10-07T13:39:16.198Z,96785.86
2018-10-07T13:41:43.927Z,96793.55
2018-10-07T13:44:11.477Z,96803.05
2018-10-07T13:46:39.007Z,96804.44
2018-10-07T13:49:06.684Z,96799.69
2018-10-07T13:51:34.279Z,96805.06
2018-10-07T13:54:01.831Z,96804.64
2018-10-07T13:56:29.559Z,96808.48
2018-10-07T13:58:57.222Z,96803.09
2018-10-07T14:01:25.023Z,96805.44
2018-10-07T14:03:52.672Z,96804.86
2018-10-07T14:06:20.356Z,96809.67
2018-10-07T14:08:47.938Z,96806.97
2018-10-07T14:11:15.647Z,96813.12
2018-10-07T14:13:43.057Z,96824.28
2018-10-07T14:16:10.471Z,96818.13
2018-10-07T14:18:37.858Z,96818.11
2018-10-07T14:21:05.229Z,96820.22
2018-10-07T14:23:32.628Z,96821.38
2018-10-07T14:26:00.020Z,96828.80
2018-10-07T14:28:27.404Z,96831.08
2018-10-07T14:30:54.740Z,96832.30
2018-10-07T14:33:22.297Z,96839.44
2018-10-07T14:35:49.621Z,96839.63
2018-10-07T14:38:17.813Z,96842.94
2018-10-07T14:40:45.415Z,96838.70
2018-10-07T14:43:13.440Z,96847.51
2018-10-07T14:45:41.044Z,96843.83
2018-10-07T14:48:08.420Z,96849.28
2018-10-07T14:50:35.813Z,96850.02
2018-10-07T14:53:03.166Z,96850.39
2018-10-07T14:57:57.342Z,96850.32
2018-10-07T15:00:24.739Z,96848.28
2018-10-07T15:02:52.764Z,96852.91
2018-10-07T15:05:20.150Z,96858.33
2018-10-07T15:07:47.507Z,96864.27
2018-10-07T15:10:14.866Z,96866.20
2018-10-07T15:12:42.667Z,96866.66
2018-10-07T15:15:10.102Z,96874.52
2018-10-07T15:17:37.586Z,96875.94
2018-10-07T15:20:05.788Z,96890.40
2018-10-07T15:22:33.149Z,96891.80
2018-10-07T15:25:00.519Z,96891.83
2018-10-07T15:27:27.885Z,96889.23
2018-10-07T15:29:55.394Z,96895.71
2018-10-07T15:32:22.686Z,96905.79
2018-10-07T15:34:50.053Z,96915.00
2018-10-07T15:37:17.469Z,96906.63
2018-10-07T15:39:44.901Z,96913.24
2018-10-07T15:42:12.281Z,96918.51
2018-10-07T15:44:39.910Z,96926.63
2018-10-07T15:47:07.296Z,96932.95
2018-10-07T15:49:34.646Z,96930.34
2018-10-07T15:52:02.082Z,96938.15
2018-10-07T15:54:29.475Z,96941.70
2018-10-07T15:56:56.878Z,96943.25
2018-10-07T15:59:24.273Z,96953.01
2018-10-07T16:01:51.617Z,96951.02
2018-10-07T16:04:19.393Z,96958.58
2018-10-07T16:06:47.061Z,96959.42
2018-10-07T16:09:14.432Z,96962.56
2018-10-07T16:11:42.388Z,96976.47
2018-10-07T16:14:09.773Z,96972.10
2018-10-07T16:16:37.128Z,96972.22
2018-10-07T16:19:04.540Z,96979.28
2018-10-07T16:21:32.112Z,96986.42
2018-10-07T16:23:59.567Z,96998.47
2018-10-07T16:26:27.084Z,96996.64
2018-10-07T16:28:54.356Z,97001.41
2018-10-07T16:31:22.621Z,97006.80
2018-10-07T16:33:49.953Z,97013.45
2018-10-07T16:36:17.534Z,97025.97
2018-10-07T16:38:45.038Z,97029.03
2018-10-07T16:41:13.221Z,97027.81
2018-10-07T16:43:40.558Z,97027.78
2018-10-07T16:46:07.938Z,97025.05
2018-10-07T16:48:35.399Z,97036.33
2018-10-07T16:51:02.939Z,97048.34
2018-10-07T16:53:30.317Z,97045.90
2018-10-07T16:55:57.773Z,97056.96
2018-10-07T16:58:25.167Z,97067.37
2018-10-07T17:00:52.604Z,97074.56
2018-10-07T17:03:19.952Z,97083.66
2018-10-07T17:05:47.451Z,97079.78
2018-10-07T17:08:14.843Z,97082.97
2018-10-07T17:10:42.540Z,97084.08
2018-10-07T17:13:10.217Z,97091.52
2018-10-07T17:15:37.497Z,97092.05
2018-10-07T17:18:04.842Z,97096.70
2018-10-07T17:20:32.201Z,97092.94
2018-10-07T17:23:00.963Z,97092.61
2018-10-07T17:25:29.118Z,97097.17
2018-10-07T17:27:56.803Z,97100.61
2018-10-07T17:30:24.581Z,97097.02
2018-10-07T17:32:52.385Z,97099.91
2018-10-07T17:35:20.129Z,97104.95
2018-10-07T17:37:48.660Z,97106.88
2018-10-07T17:40:16.334Z,97115.19
2018-10-07T17:42:44.048Z,97121.33
2018-10-07T17:45:11.850Z,97131.69
2018-10-07T17:47:39.834Z,97123.44
2018-10-07T17:50:07.959Z,97123.95
2018-10-07T17:52:35.789Z,97128.38
2018-10-07T17:55:04.277Z,97124.21
2018-10-07T17:57:31.958Z,97123.17
2018-10-07T17:59:59.602Z,97126.08
2018-10-07T18:02:27.357Z,97127.48
2018-10-07T18:04:54.988Z,97126.83
2018-10-07T18:07:22.822Z,97135.00
2018-10-07T18:09:50.550Z,97136.96
2018-10-07T18:12:18.355Z,97140.95
2018-10-07T18:14:46.214Z,97146.05
2018-10-07T18:17:13.953Z,97155.38
2018-10-07T18:19:41.744Z,97158.65
2018-10-07T18:22:09.479Z,97166.09
2018-10-07T18:24:37.147Z,97166.19
2018-10-07T18:27:04.706Z,97173.06
2018-10-07T18:29:32.673Z,97173.07
2018-10-07T18:32:00.319Z,97177.17
2018-10-07T18:34:28.109Z,97185.28
2018-10-07T18:36:55.749Z,97182.44
2018-10-07T18:39:23.449Z,97191.44
2018-10-07T18:41:51.123Z,97194.45
2018-10-07T18:44:18.850Z,97193.22
2018-10-07T18:46:46.527Z,97193.02
2018-10-07T18:49:14.222Z,97199.62
2018-10-07T18:51:41.907Z,97193.59
2018-10-07T18:54:09.569Z,97204.52
2018-10-07T18:56:37.145Z,97208.64
2018-10-07T18:59:04.815Z,97214.91
2018-10-07T19:01:32.439Z,97217.02
2018-10-07T19:04:00.019Z,97221.55
2018-10-07T19:06:27.529Z,97216.15
2018-10-07T19:08:55.229Z,97226.22
2018-10-07T19:11:23.011Z,97225.77
2018-10-07T19:13:50.586Z,97223.90
2018-10-07T19:16:18.136Z,97227.20
2018-10-07T19:18:45.826Z,97227.84
2018-10-07T19:21:13.434Z,97236.28
2018-10-07T19:23:41.006Z,97228.52
2018-10-07T19:26:08.638Z,97239.38
2018-10-07T19:28:36.198Z,97247.64
2018-10-07T19:31:03.714Z,97257.14
2018-10-07T19:33:31.297Z,97257.60
2018-10-07T19:36:00.144Z,97251.66
2018-10-07T19:38:29.884Z,97260.13
2018-10-07T19:40:57.915Z,97255.19
2018-10-07T19:43:25.518Z,97255.04
2018-10-07T19:45:53.104Z,97268.19
2018-10-07T19:48:20.642Z,97271.15
2018-10-07T19:50:48.514Z,97267.95
2018-10-07T19:53:16.099Z,97275.17
2018-10-07T19:55:43.761Z,97274.91
2018-10-07T19:58:12.144Z,97277.56
2018-10-07T20:00:39.835Z,97275.59
2018-10-07T20:03:07.469Z,97275.86
2018-10-07T20:05:34.929Z,97270.41
2018-10-07T20:08:02.679Z,97275.05
2018-10-07T20:10:30.146Z,97276.41
2018-10-07T20:12:57.707Z,97276.47
2018-10-07T20:15:25.347Z,97274.04
2018-10-07T20:17:52.962Z,97272.02
2018-10-07T20:20:20.658Z,97269.41
2018-10-07T20:22:48.397Z,97268.13
2018-10-07T20:25:16.064Z,97280.84
2018-10-07T20:27:43.660Z,97275.31
2018-10-07T20:30:11.269Z,97189.52
2018-10-07T20:32:38.845Z,97275.55
2018-10-07T20:35:06.655Z,97280.25
2018-10-07T20:37:34.373Z,97282.81
2018-10-07T20:40:02.003Z,97051.37
2018-10-07T20:42:29.639Z,97293.08
2018-10-07T20:44:57.129Z,97288.85
2018-10-07T20:47:24.647Z,97281.55
2018-10-07T20:49:52.207Z,97280.86
2018-10-07T20:52:19.822Z,97284.67
2018-10-07T20:54:47.511Z,97285.55
2018-10-07T20:57:15.065Z,97274.61
2018-10-07T20:59:42.657Z,97283.18
2018-10-07T21:02:10.317Z,97280.64
2018-10-07T21:04:37.948Z,97282.22
2018-10-07T21:07:05.681Z,97285.86
2018-10-07T21:09:33.352Z,97273.39
2018-10-07T21:12:01.072Z,97280.27
2018-10-07T21:14:28.663Z,97273.53
2018-10-07T21:16:56.360Z,97275.60
2018-10-07T21:19:23.821Z,97282.34
2018-10-07T21:21:51.338Z,97275.09
2018-10-07T21:24:19.279Z,97281.36
2018-10-07T21:26:46.836Z,97283.89
2018-10-07T21:29:14.503Z,97278.45
2018-10-07T21:31:45.791Z,97284.98
2018-10-07T21:34:13.310Z,97286.77
2018-10-07T21:36:42.915Z,97291.61
2018-10-07T21:39:11.051Z,97295.27
2018-10-07T21:41:38.656Z,97043.63
2018-10-07T21:44:06.529Z,97286.27
2018-10-07T21:46:34.527Z,97288.86
2018-10-07T21:49:01.921Z,97287.89
2018-10-07T21:51:29.531Z,97285.41
2018-10-07T21:53:57.010Z,97278.44
2018-10-07T21:56:24.624Z,97280.34
2018-10-07T21:58:52.335Z,97285.44
2018-10-07T22:01:19.970Z,97287.21
2018-10-07T22:03:47.561Z,97283.84
2018-10-07T22:06:15.107Z,97274.91
2018-10-07T22:08:42.810Z,97279.16
2018-10-07T22:11:10.495Z,97289.64
2018-10-07T22:13:38.043Z,97227.66
2018-10-07T22:16:05.641Z,97288.63
2018-10-07T22:18:33.190Z,97290.92
2018-10-07T22:21:00.900Z,97288.82
2018-10-07T22:23:28.541Z,97290.39
2018-10-07T22:25:56.024Z,97290.91
2018-10-07T22:28:23.469Z,97296.52
2018-10-07T22:30:52.307Z,97297.09
2018-10-07T22:33:19.782Z,97295.52
2018-10-07T22:35:47.334Z,97288.44
2018-10-07T22:38:14.852Z,97287.73
2018-10-07T22:40:42.406Z,97289.76
2018-10-07T22:43:09.926Z,97290.34
2018-10-07T22:45:37.409Z,97292.92
2018-10-07T22:48:04.969Z,97294.32
2018-10-07T22:50:32.458Z,97290.27
2018-10-07T22:52:59.905Z,97293.94
2018-10-07T22:55:27.471Z,97291.48
2018-10-07T22:57:54.980Z,97289.09
2018-10-07T23:00:22.529Z,97287.84
2018-10-07T23:02:50.239Z,97287.51
2018-10-07T23:05:17.739Z,97291.41
2018-10-07T23:07:45.308Z,97294.02
2018-10-07T23:10:12.846Z,97291.41
2018-10-07T23:12:40.418Z,97285.49
2018-10-07T23:15:07.969Z,97287.75
2018-10-07T23:17:35.572Z,97283.19
2018-10-07T23:20:03.879Z,97288.17
2018-10-07T23:22:31.513Z,97288.67
2018-10-07T23:24:59.021Z,97295.30
2018-10-07T23:27:26.630Z,97298.27
2018-10-07T23:29:53.900Z,97307.44
2018-10-07T23:32:21.253Z,97291.37
2018-10-07T23:34:48.524Z,97305.09
2018-10-07T23:37:15.813Z,97305.03
2018-10-07T23:39:43.132Z,97311.95
2018-10-07T23:42:10.447Z,97316.86
2018-10-07T23:44:37.767Z,97314.78
2018-10-07T23:47:05.072Z,97308.40
2018-10-07T23:49:32.390Z,97308.04
2018-10-07T23:51:59.728Z,97309.83
2018-10-07T23:54:26.978Z,97313.34
2018-10-07T23:56:54.325Z,97313.41
2018-10-07T23:59:21.735Z,97312.20
